Time;durP1;ratioP1;P1;durP2;ratioP2;P2;SDS_P1;SDS_P2;PMS_P1;PMS_P2;Temp;Humidity;BMP_temperature;BMP_pressure;BME280_temperature;BME280_humidity;BME280_pressure;Samples;Min_cycle;Max_cycle;Signal;HPM_P1;HPM_P2
2023/01/21 00:00:59;;;;;;;51.65;26.98;;;;;;;-0.23;100.00;100864.22;5042820;28;20073;-84
2023/01/21 00:03:25;;;;;;;46.92;25.27;;;;;;;0.18;100.00;100945.97;5039789;28;20100;-84
2023/01/21 00:05:52;;;;;;;53.30;31.10;;;;;;;-0.83;100.00;100770.31;5034926;28;20057;-85
2023/01/21 00:08:19;;;;;;;50.78;25.65;;;;;;;0.14;100.00;100945.97;5040306;28;20061;-85
2023/01/21 00:10:45;;;;;;;48.60;25.88;;;;;;;-0.51;100.00;100827.69;5040176;28;20053;-84
2023/01/21 00:13:12;;;;;;;47.70;24.90;;;;;;;0.42;100.00;100992.09;5036963;28;20056;-82
2023/01/21 00:15:39;;;;;;;47.88;24.42;;;;;;;0.48;100.00;101012.94;5047399;28;20060;-84
2023/01/21 00:18:05;;;;;;;46.58;25.55;;;;;;;0.23;100.00;100967.69;5042792;28;20052;-83
2023/01/21 00:20:32;;;;;;;48.65;24.80;;;;;;;0.41;100.00;101008.59;5034278;28;20053;-83
2023/01/21 00:22:58;;;;;;;48.22;26.40;;;;;;;-0.04;100.00;100947.63;5040271;28;20080;-82
2023/01/21 00:25:25;;;;;;;51.10;26.65;;;;;;;0.05;100.00;100962.41;5043114;28;20049;-83
2023/01/21 00:27:52;;;;;;;48.38;24.55;;;;;;;0.46;100.00;101021.63;5046811;28;20057;-85
2023/01/21 00:30:18;;;;;;;43.70;24.20;;;;;;;-0.40;100.00;100895.38;5042934;28;20044;-82
2023/01/21 00:32:45;;;;;;;51.25;25.40;;;;;;;0.02;100.00;100964.97;5045494;28;20052;-84
2023/01/21 00:35:12;;;;;;;50.17;25.45;;;;;;;-0.22;100.00;100921.50;5034967;28;20060;-83
2023/01/21 00:37:38;;;;;;;46.03;23.80;;;;;;;0.25;100.00;101002.44;5051894;28;20084;-83
2023/01/21 00:40:05;;;;;;;50.22;24.92;;;;;;;0.43;100.00;101027.69;5052955;28;20049;-83
2023/01/21 00:42:32;;;;;;;46.47;24.27;;;;;;;-0.35;100.00;100909.28;5039607;28;20136;-84
2023/01/21 00:44:59;;;;;;;51.17;25.95;;;;;;;0.39;100.00;101048.50;5043544;28;20135;-83
2023/01/21 00:47:26;;;;;;;48.40;24.55;;;;;;;-0.21;100.00;100937.97;5036315;28;20250;-83
2023/01/21 00:49:53;;;;;;;49.58;25.08;;;;;;;-0.52;100.00;100916.13;5036096;28;20049;-84
2023/01/21 00:52:20;;;;;;;45.85;23.90;;;;;;;-0.26;100.00;100942.28;5054419;28;20053;-82
2023/01/21 00:54:46;;;;;;;41.45;23.38;;;;;;;-1.00;100.00;100821.31;5043273;28;20386;-83
2023/01/21 00:57:13;;;;;;;45.70;24.00;;;;;;;-1.36;100.00;100754.38;5046731;28;20040;-84
2023/01/21 00:59:42;;;;;;;41.58;23.10;;;;;;;0.07;100.00;101023.16;5048250;28;20457;-85
2023/01/21 01:02:09;;;;;;;49.72;25.33;;;;;;;-0.40;100.00;100934.41;5045912;28;20044;-85
2023/01/21 01:04:38;;;;;;;43.53;23.30;;;;;;;-0.74;100.00;100878.69;5048076;28;20057;-83
2023/01/21 01:07:04;;;;;;;42.60;22.40;;;;;;;-0.04;100.00;101009.22;5037012;28;20041;-84
2023/01/21 01:09:31;;;;;;;41.58;21.88;;;;;;;-0.06;100.00;101000.53;5044793;28;20179;-84
2023/01/21 01:11:58;;;;;;;45.30;22.80;;;;;;;-0.34;100.00;100983.00;5044937;28;20562;-84
2023/01/21 01:14:25;;;;;;;45.38;21.83;;;;;;;-0.54;100.00;100954.25;5042975;28;20049;-84
2023/01/21 01:16:51;;;;;;;43.90;22.10;;;;;;;-0.19;100.00;101022.16;5051074;28;20068;-83
2023/01/21 01:19:18;;;;;;;44.60;23.17;;;;;;;-0.64;100.00;100955.94;5043447;28;20049;-83
2023/01/21 01:21:44;;;;;;;46.15;22.17;;;;;;;-0.23;100.00;101033.38;5042650;28;20060;-83
2023/01/21 01:24:11;;;;;;;46.08;23.70;;;;;;;-0.56;100.00;100982.84;5053123;28;20053;-82
2023/01/21 01:26:39;;;;;;;43.65;23.13;;;;;;;-0.37;100.00;101008.16;5045040;28;20144;-83
2023/01/21 01:29:12;;;;;;;45.57;23.80;;;;;;;-1.36;100.00;100860.88;5039322;28;20041;-83
2023/01/21 01:31:39;;;;;;;43.90;22.92;;;;;;;-0.08;100.00;101080.34;5053739;28;20045;-84
2023/01/21 01:34:05;;;;;;;46.25;23.67;;;;;;;-0.37;100.00;101059.31;5048063;28;20045;-83
2023/01/21 01:36:33;;;;;;;39.42;21.40;;;;;;;-0.75;100.00;101013.03;5040319;28;20073;-83
2023/01/21 01:39:00;;;;;;;50.95;24.77;;;;;;;-0.71;100.00;101042.53;5053724;28;20124;-83
2023/01/21 01:41:28;;;;;;;47.72;22.90;;;;;;;-0.64;100.00;101062.56;5061004;28;20119;-82
2023/01/21 01:43:58;;;;;;;39.55;21.58;;;;;;;-0.43;100.00;101125.19;5046802;28;20061;-82
2023/01/21 01:46:28;;;;;;;40.70;23.08;;;;;;;-0.49;100.00;101124.25;5047694;28;20060;-85
2023/01/21 01:49:04;;;;;;;44.83;22.05;;;;;;;-0.54;100.00;101128.53;5037141;28;20050;-82
2023/01/21 01:51:51;;;;;;;44.25;22.25;;;;;;;-1.42;100.00;100996.75;5048063;28;20057;-85
2023/01/21 01:54:27;;;;;;;43.20;22.48;;;;;;;-1.70;100.00;100965.28;5039742;28;20075;-83
2023/01/21 01:56:58;;;;;;;43.05;20.60;;;;;;;-0.79;100.00;101145.63;5035820;28;20076;-84
2023/01/21 01:59:25;;;;;;;39.30;20.85;;;;;;;-1.29;100.00;101062.75;5038815;28;20063;-83
2023/01/21 02:01:52;;;;;;;39.70;20.27;;;;;;;-1.94;100.00;100974.53;5043747;28;20080;-84
2023/01/21 02:04:25;;;;;;;40.00;19.77;;;;;;;-2.48;100.00;100889.03;5045456;28;20051;-84
2023/01/21 02:06:54;;;;;;;44.00;21.70;;;;;;;-1.65;100.00;101028.53;5040254;28;20047;-83
2023/01/21 02:09:20;;;;;;;41.58;20.48;;;;;;;-0.89;100.00;101154.16;5049002;28;20051;-83
2023/01/21 02:11:48;;;;;;;41.38;20.52;;;;;;;-1.57;100.00;101053.72;5035368;28;20058;-83
2023/01/21 02:14:15;;;;;;;40.40;20.15;;;;;;;-1.13;100.00;101128.78;5037032;28;20127;-81
2023/01/21 02:16:54;;;;;;;36.50;19.88;;;;;;;-1.41;100.00;101107.63;5052541;28;20080;-81
2023/01/21 02:19:34;;;;;;;42.45;20.48;;;;;;;-1.49;100.00;101078.09;5037037;28;20053;-82
2023/01/21 02:22:46;;;;;;;42.55;21.02;;;;;;;-0.80;100.00;101175.97;5047855;28;20057;-82
2023/01/21 02:25:34;;;;;;;44.17;21.20;;;;;;;-0.81;100.00;101174.22;5028439;28;20422;-81
2023/01/21 02:28:19;;;;;;;39.22;19.40;;;;;;;-0.84;100.00;101175.91;5040029;28;20054;-83
2023/01/21 02:31:14;;;;;;;41.00;20.27;;;;;;;-1.29;100.00;101103.44;5033024;28;20706;-84
2023/01/21 02:33:49;;;;;;;43.05;20.63;;;;;;;-1.06;100.00;101148.75;5040068;28;20057;-84
2023/01/21 02:36:18;;;;;;;42.60;20.95;;;;;;;-0.93;100.00;101173.16;5038272;28;20045;-83
2023/01/21 02:39:08;;;;;;;39.88;20.25;;;;;;;-1.07;100.00;101160.88;5035692;28;20068;-84
2023/01/21 02:42:00;;;;;;;44.30;20.98;;;;;;;-0.95;100.00;101187.91;5026121;28;20049;-83
2023/01/21 02:44:38;;;;;;;39.97;20.52;;;;;;;-1.01;100.00;101187.81;5037529;28;20523;-84
2023/01/21 02:47:31;;;;;;;41.63;21.20;;;;;;;-1.09;100.00;101193.78;5052558;28;20524;-85
2023/01/21 02:50:10;;;;;;;47.17;21.63;;;;;;;-1.67;100.00;101108.13;5048910;28;20057;-84
2023/01/21 02:52:37;;;;;;;41.30;21.17;;;;;;;-1.30;100.00;101177.94;5041170;28;20054;-85
2023/01/21 02:55:03;;;;;;;40.25;21.13;;;;;;;-1.20;100.00;101199.69;5036134;28;20076;-86
2023/01/21 02:57:40;;;;;;;41.70;22.42;;;;;;;-1.36;100.00;101198.59;5039383;28;20046;-84
2023/01/21 03:00:27;;;;;;;44.35;21.15;;;;;;;-1.80;100.00;101118.34;5042161;28;20140;-84
2023/01/21 03:03:21;;;;;;;42.97;20.92;;;;;;;-1.36;100.00;101201.22;5034138;28;20160;-84
2023/01/21 03:06:07;;;;;;;37.60;19.45;;;;;;;-1.40;100.00;101207.19;5035275;28;20506;-86
2023/01/21 03:09:06;;;;;;;42.60;21.38;;;;;;;-1.73;100.00;101170.38;5030735;28;20059;-84
2023/01/21 03:11:32;;;;;;;38.33;20.65;;;;;;;-1.64;100.00;101201.66;5041366;28;20061;-85
2023/01/21 03:17:07;;;;;;;39.92;20.08;;;;;;;-2.17;100.00;101145.44;5034526;28;20057;-84
2023/01/21 03:19:41;;;;;;;38.20;19.80;;;;;;;-2.13;100.00;101154.16;5050687;28;20060;-85
2023/01/21 03:22:13;;;;;;;36.38;19.85;;;;;;;-1.81;100.00;101214.38;5047759;28;20064;-86
2023/01/21 03:24:44;;;;;;;35.92;19.13;;;;;;;-1.92;100.00;101200.34;5044910;28;20584;-83
2023/01/21 03:27:15;;;;;;;37.17;19.45;;;;;;;-1.84;100.00;101229.91;5043878;28;20041;-84
2023/01/21 03:29:45;;;;;;;40.03;20.23;;;;;;;-1.92;100.00;101237.56;5051528;28;20056;-84
2023/01/21 03:32:14;;;;;;;37.70;19.40;;;;;;;-2.18;100.00;101213.75;5054592;28;20049;-84
2023/01/21 03:34:45;;;;;;;35.83;18.63;;;;;;;-1.99;100.00;101240.91;5040596;28;20134;-84
2023/01/21 03:37:11;;;;;;;;;;;;;;;-2.03;100.00;101248.59;5044478;28;20590;-84
2023/01/21 03:40:19;;;;;;;37.70;19.13;;;;;;;-2.08;100.00;101245.94;5040104;28;19928;-84
2023/01/21 03:42:49;;;;;;;36.95;18.88;;;;;;;-2.22;100.00;101234.44;5035655;28;20422;-84
2023/01/21 03:45:23;;;;;;;37.78;18.80;;;;;;;-2.18;100.00;101247.47;5044678;28;20115;-85
2023/01/21 03:47:57;;;;;;;41.60;18.95;;;;;;;-2.19;100.00;101244.84;5049563;28;20051;-83
2023/01/21 03:50:37;;;;;;;36.22;18.48;;;;;;;-2.16;100.00;101257.88;5048205;28;20053;-84
2023/01/21 03:53:05;;;;;;;37.47;19.90;;;;;;;-2.20;100.00;101248.28;5037380;28;20057;-85
2023/01/21 03:55:34;;;;;;;37.58;19.02;;;;;;;-2.47;100.00;101204.56;5036706;28;20147;-85
2023/01/21 03:58:01;;;;;;;36.33;19.05;;;;;;;-2.68;100.00;101168.75;5039234;28;20046;-85
2023/01/21 04:00:27;;;;;;;38.38;18.95;;;;;;;-2.21;100.00;101249.16;5035926;28;20496;-85
2023/01/21 04:02:54;;;;;;;36.50;19.40;;;;;;;-2.37;100.00;101223.78;5044203;28;20410;-84
2023/01/21 04:05:20;;;;;;;38.80;19.15;;;;;;;-2.65;100.00;101193.84;5046406;28;20049;-83
2023/01/21 04:07:47;;;;;;;35.53;19.08;;;;;;;-2.96;100.00;101125.88;5046554;28;20055;-83
2023/01/21 04:10:13;;;;;;;36.75;19.40;;;;;;;-2.26;100.00;101243.88;5046118;28;20053;-82
2023/01/21 04:12:40;;;;;;;39.15;20.92;;;;;;;-3.11;100.00;101114.31;5034642;28;20053;-82
2023/01/21 04:15:11;;;;;;;37.67;18.73;;;;;;;-2.39;100.00;101235.84;5051745;28;20048;-82
2023/01/21 04:17:37;;;;;;;40.17;19.90;;;;;;;-2.48;100.00;101223.56;5043646;28;20502;-82
2023/01/21 04:20:05;;;;;;;41.92;19.35;;;;;;;-2.34;100.00;101257.53;5046305;28;20073;-80
2023/01/21 04:22:32;;;;;;;41.72;20.42;;;;;;;-2.94;100.00;101154.41;5040865;28;20120;-81
2023/01/21 04:24:58;;;;;;;38.50;19.70;;;;;;;-2.30;100.00;101275.78;5046842;28;20057;-83
2023/01/21 04:27:25;;;;;;;40.55;20.65;;;;;;;-2.53;100.00;101210.53;5049982;28;20049;-82
2023/01/21 04:29:51;;;;;;;38.22;20.95;;;;;;;-2.17;100.00;101272.56;5035535;28;20125;-84
2023/01/21 04:32:18;;;;;;;38.55;19.27;;;;;;;-2.35;100.00;101255.78;5035593;28;20041;-82
2023/01/21 04:34:44;;;;;;;42.47;21.00;;;;;;;-2.85;100.00;101178.81;5044197;28;20092;-81
2023/01/21 04:37:11;;;;;;;39.20;20.55;;;;;;;-2.32;100.00;101261.91;5038753;28;20409;-81
2023/01/21 04:39:37;;;;;;;35.38;19.55;;;;;;;-2.66;100.00;101213.69;5040330;28;20061;-82
2023/01/21 04:42:04;;;;;;;39.90;20.88;;;;;;;-2.94;100.00;101175.13;5041058;28;20068;-83
2023/01/21 04:44:30;;;;;;;42.05;21.13;;;;;;;-2.39;100.00;101285.13;5048854;28;20067;-83
2023/01/21 04:46:57;;;;;;;40.42;20.33;;;;;;;-3.57;100.00;101069.38;5035074;28;20057;-82
2023/01/21 04:49:23;;;;;;;38.15;20.90;;;;;;;-3.44;100.00;101088.63;5040474;28;20152;-82
2023/01/21 04:51:50;;;;;;;39.38;20.35;;;;;;;-3.82;100.00;101049.00;5045995;28;20581;-83
2023/01/21 04:54:16;;;;;;;40.42;20.65;;;;;;;-2.80;100.00;101228.13;5036325;28;20055;-82
2023/01/21 04:56:43;;;;;;;38.35;20.33;;;;;;;-2.56;100.00;101254.53;5038539;28;20087;-81
2023/01/21 04:59:10;;;;;;;41.17;21.42;;;;;;;-2.74;100.00;101225.66;5052177;28;20057;-81
2023/01/21 05:01:37;;;;;;;40.15;21.10;;;;;;;-3.33;100.00;101134.63;5040073;28;20084;-81
2023/01/21 05:04:03;;;;;;;44.88;21.30;;;;;;;-3.04;100.00;101188.75;5036740;28;20061;-81
2023/01/21 05:06:30;;;;;;;43.47;21.45;;;;;;;-2.67;100.00;101247.38;5038139;28;20063;-82
2023/01/21 05:08:56;;;;;;;42.83;22.52;;;;;;;-2.69;100.00;101254.28;5040682;28;20059;-81
2023/01/21 05:11:23;;;;;;;41.10;20.27;;;;;;;-2.93;100.00;101201.06;5041410;28;20059;-81
2023/01/21 05:13:50;;;;;;;38.22;20.65;;;;;;;-3.26;100.00;101159.81;5042757;28;20141;-81
2023/01/21 05:16:16;;;;;;;46.95;20.88;;;;;;;-3.01;100.00;101189.69;5045255;28;20044;-80
2023/01/21 05:18:44;;;;;;;43.50;20.92;;;;;;;-2.43;100.00;101293.69;5048904;28;20049;-81
2023/01/21 05:21:12;;;;;;;41.50;20.48;;;;;;;-2.63;100.00;101270.81;5050027;28;20506;-81
2023/01/21 05:23:38;;;;;;;45.20;21.05;;;;;;;-2.57;100.00;101286.50;5044873;28;20053;-81
2023/01/21 05:26:05;;;;;;;42.42;21.58;;;;;;;-2.58;100.00;101292.53;5056426;28;20055;-82
2023/01/21 05:28:31;;;;;;;43.65;21.33;;;;;;;-3.14;100.00;101204.94;5056139;28;20049;-81
2023/01/21 05:31:00;;;;;;;44.85;21.50;;;;;;;-2.51;100.00;101307.34;5039028;28;20057;-82
2023/01/21 05:33:34;;;;;;;43.10;20.60;;;;;;;-2.54;100.00;101301.25;5048724;28;20126;-83
2023/01/21 05:36:02;;;;;;;43.45;21.38;;;;;;;-2.72;100.00;101273.22;5056197;28;20036;-81
2023/01/21 05:38:29;;;;;;;44.30;20.52;;;;;;;-2.59;100.00;101297.69;5048599;28;20049;-80
2023/01/21 05:40:58;;;;;;;48.25;22.40;;;;;;;-2.82;100.00;101263.50;5049876;28;20057;-81
2023/01/21 05:43:25;;;;;;;41.40;20.90;;;;;;;-2.73;100.00;101281.84;5059207;28;20060;-82
2023/01/21 05:45:51;;;;;;;44.25;21.75;;;;;;;-2.50;100.00;101305.63;5051991;28;20109;-80
2023/01/21 05:48:18;;;;;;;46.00;22.63;;;;;;;-2.62;100.00;101288.13;5049534;28;20069;-80
2023/01/21 05:50:44;;;;;;;48.38;22.75;;;;;;;-2.53;100.00;101295.22;5040149;28;20077;-81
2023/01/21 05:53:11;;;;;;;45.42;21.95;;;;;;;-2.57;100.00;101294.28;5045563;28;20083;-80
2023/01/21 05:55:38;;;;;;;41.40;21.60;;;;;;;-2.60;100.00;101268.28;5042948;28;20636;-81
2023/01/21 05:58:04;;;;;;;41.03;21.00;;;;;;;-2.85;100.00;101228.03;5051603;28;20060;-81
2023/01/21 06:00:31;;;;;;;41.47;21.67;;;;;;;-2.36;100.00;101324.09;5050295;28;20045;-81
2023/01/21 06:03:01;;;;;;;43.75;22.48;;;;;;;-2.51;100.00;101296.97;5042386;28;20049;-80
2023/01/21 06:05:28;;;;;;;47.00;22.17;;;;;;;-2.77;100.00;101250.63;5033327;28;20060;-80
2023/01/21 06:07:55;;;;;;;41.30;19.80;;;;;;;-2.45;100.00;101298.84;5038919;28;20046;-80
2023/01/21 06:10:21;;;;;;;41.38;20.98;;;;;;;-2.49;100.00;101305.66;5032937;28;20162;-81
2023/01/21 06:12:51;;;;;;;45.28;21.50;;;;;;;-3.20;100.00;101195.34;5050438;28;20375;-82
2023/01/21 06:15:19;;;;;;;33.15;17.85;;;;;;;-2.93;100.00;101252.03;5044362;28;20068;-82
2023/01/21 06:17:45;;;;;;;48.42;22.08;;;;;;;-2.71;100.00;101274.09;5048206;28;20674;-83
2023/01/21 06:20:13;;;;;;;39.88;20.67;;;;;;;-2.79;100.00;101279.13;5052575;28;20059;-81
2023/01/21 06:22:40;;;;;;;44.92;21.10;;;;;;;-2.35;100.00;101351.75;5041206;28;20557;-80
2023/01/21 06:25:06;;;;;;;43.17;21.25;;;;;;;-3.11;100.00;101217.94;5037461;28;20144;-80
2023/01/21 06:27:36;;;;;;;43.83;22.20;;;;;;;-2.40;100.00;101337.84;5045203;28;20049;-81
2023/01/21 06:30:05;;;;;;;43.03;21.00;;;;;;;-2.36;100.00;101347.44;5041754;28;20083;-82
2023/01/21 06:32:32;;;;;;;46.42;22.58;;;;;;;-2.89;100.00;101270.28;5033252;28;20115;-82
2023/01/21 06:34:59;;;;;;;44.25;22.02;;;;;;;-2.39;100.00;101344.78;5040491;28;20053;-82
2023/01/21 06:37:26;;;;;;;42.28;21.23;;;;;;;-2.34;100.00;101350.91;5045150;28;20055;-82
2023/01/21 06:39:53;;;;;;;38.95;20.60;;;;;;;-2.73;100.00;101302.59;5036822;28;20121;-81
2023/01/21 06:42:19;;;;;;;38.00;19.95;;;;;;;-2.69;100.00;101307.00;5052072;28;20131;-82
2023/01/21 06:44:46;;;;;;;44.83;21.23;;;;;;;-2.72;100.00;101309.53;5037027;28;20053;-83
2023/01/21 06:47:13;;;;;;;40.05;20.20;;;;;;;-2.67;100.00;101314.78;5036679;28;20055;-82
2023/01/21 06:49:42;;;;;;;37.55;19.88;;;;;;;-3.27;100.00;101204.66;5046406;28;20109;-84
2023/01/21 06:52:08;;;;;;;42.20;20.90;;;;;;;-3.03;100.00;101263.94;5044176;28;20490;-81
2023/01/21 06:54:35;;;;;;;41.15;21.33;;;;;;;-2.97;100.00;101274.41;5050138;28;20063;-83
2023/01/21 06:57:02;;;;;;;38.70;20.02;;;;;;;-2.40;100.00;101376.75;5056880;28;20057;-83
2023/01/21 06:59:28;;;;;;;41.50;20.77;;;;;;;-2.75;100.00;101319.81;5044172;28;20057;-82
2023/01/21 07:01:57;;;;;;;37.85;19.63;;;;;;;-2.63;100.00;101338.22;5046619;28;20057;-85
2023/01/21 07:04:25;;;;;;;42.92;21.65;;;;;;;-3.25;100.00;101241.84;5049066;28;20123;-82
2023/01/21 07:06:52;;;;;;;41.45;21.10;;;;;;;-2.33;100.00;101394.19;5051235;28;20055;-81
2023/01/21 07:09:19;;;;;;;38.45;19.80;;;;;;;-2.30;100.00;101400.31;5051170;28;20041;-83
2023/01/21 07:11:46;;;;;;;41.17;21.15;;;;;;;-2.27;100.00;101407.28;5038265;28;20405;-82
2023/01/21 07:14:13;;;;;;;40.17;20.15;;;;;;;-2.27;100.00;101397.78;5040017;28;20085;-83
2023/01/21 07:16:40;;;;;;;39.92;20.50;;;;;;;-2.60;100.00;101351.25;5050696;28;20057;-83
2023/01/21 07:19:06;;;;;;;38.92;20.38;;;;;;;-2.94;100.00;101305.56;5051691;28;20135;-81
2023/01/21 07:21:33;;;;;;;40.17;20.45;;;;;;;-2.31;100.00;101413.25;5044151;28;20069;-81
2023/01/21 07:23:59;;;;;;;38.72;20.35;;;;;;;-2.60;100.00;101379.78;5044567;28;20128;-81
2023/01/21 07:26:26;;;;;;;40.22;20.60;;;;;;;-2.78;100.00;101348.25;5039386;28;20064;-82
2023/01/21 07:28:52;;;;;;;43.25;21.15;;;;;;;-3.27;100.00;101259.06;5053919;28;20049;-82
2023/01/21 07:31:19;;;;;;;43.20;21.02;;;;;;;-3.12;100.00;101278.38;5044611;28;20052;-84
2023/01/21 07:33:46;;;;;;;40.08;20.10;;;;;;;-2.94;100.00;101315.94;5037123;28;20050;-84
2023/01/21 07:36:12;;;;;;;47.10;22.50;;;;;;;-3.28;100.00;101259.03;5039175;28;20049;-84
2023/01/21 07:38:39;;;;;;;42.22;21.50;;;;;;;-2.56;100.00;101381.59;5050424;28;20050;-84
2023/01/21 07:41:05;;;;;;;43.03;21.63;;;;;;;-2.50;100.00;101370.47;5044703;28;20052;-84
2023/01/21 07:43:32;;;;;;;40.90;20.73;;;;;;;-2.17;100.00;101420.47;5037897;28;20132;-84
2023/01/21 07:45:59;;;;;;;42.90;22.05;;;;;;;-2.48;100.00;101367.06;5044132;28;20148;-81
2023/01/21 07:48:25;;;;;;;39.33;20.67;;;;;;;-2.55;100.00;101341.00;5056537;28;20119;-81
2023/01/21 07:50:56;;;;;;;41.50;21.52;;;;;;;-2.04;100.00;101434.56;5048983;28;20089;-82
2023/01/21 07:53:24;;;;;;;43.30;21.63;;;;;;;-2.70;100.00;101317.34;5040380;28;20053;-82
2023/01/21 07:55:50;;;;;;;42.63;20.80;;;;;;;-3.20;100.00;101232.47;5048913;28;20140;-81
2023/01/21 07:58:17;;;;;;;46.17;20.70;;;;;;;-2.52;100.00;101347.09;5047422;28;20061;-83
2023/01/21 08:00:44;;;;;;;40.97;19.95;;;;;;;-2.91;100.00;101279.75;5048262;28;20057;-82
2023/01/21 08:03:10;;;;;;;37.25;20.27;;;;;;;-2.26;100.00;101368.41;5047054;28;20045;-81
2023/01/21 08:05:37;;;;;;;41.65;21.02;;;;;;;-1.89;100.00;101427.09;5043139;28;20398;-82
2023/01/21 08:08:03;;;;;;;40.85;20.35;;;;;;;-1.87;100.00;101440.09;5046796;28;20053;-83
2023/01/21 08:10:30;;;;;;;35.80;19.55;;;;;;;-2.23;100.00;101367.59;5051609;28;20062;-82
2023/01/21 08:12:56;;;;;;;35.50;18.88;;;;;;;-2.03;100.00;101400.00;5041282;28;20056;-84
2023/01/21 08:15:23;;;;;;;38.53;18.75;;;;;;;-1.89;100.00;101413.28;5043761;28;20050;-82
2023/01/21 08:17:49;;;;;;;38.83;19.63;;;;;;;-1.79;100.00;101438.56;5050434;28;20067;-81
2023/01/21 08:20:16;;;;;;;34.03;18.08;;;;;;;-1.75;100.00;101447.28;5036451;28;20049;-81
2023/01/21 08:22:43;;;;;;;35.33;18.10;;;;;;;-2.94;100.00;101242.50;5044998;28;20052;-82
2023/01/21 08:25:10;;;;;;;32.13;16.70;;;;;;;-1.80;100.00;101435.09;5043190;28;20060;-82
2023/01/21 08:27:37;;;;;;;32.00;17.88;;;;;;;-2.02;100.00;101399.16;5048930;28;20050;-83
2023/01/21 08:30:04;;;;;;;32.10;16.10;;;;;;;-1.67;100.00;101456.09;5036284;28;20502;-82
2023/01/21 08:32:30;;;;;;;28.27;15.90;;;;;;;-2.12;100.00;101363.50;5046536;28;20060;-82
2023/01/21 08:34:57;;;;;;;31.08;15.98;;;;;;;-1.54;100.00;101448.56;5033825;28;20049;-81
2023/01/21 08:37:24;;;;;;;31.25;16.67;;;;;;;-1.61;100.00;101425.06;5034981;28;20702;-83
2023/01/21 08:39:50;;;;;;;28.17;15.20;;;;;;;-1.43;100.00;101447.06;5042611;28;20055;-81
2023/01/21 08:42:17;;;;;;;31.02;15.93;;;;;;;-1.56;100.00;101416.47;5043015;28;20087;-82
2023/01/21 08:44:44;;;;;;;30.50;16.70;;;;;;;-1.75;100.00;101370.28;5046079;28;20059;-84
2023/01/21 08:47:11;;;;;;;27.88;14.45;;;;;;;-1.47;100.00;101403.69;5035423;28;20494;-82
2023/01/21 08:49:38;;;;;;;28.35;14.32;;;;;;;-1.75;100.00;101361.59;5034341;28;20048;-82
2023/01/21 08:52:04;;;;;;;24.23;13.57;;;;;;;-1.69;100.00;101347.00;5036315;28;20073;-81
2023/01/21 08:54:31;;;;;;;25.02;12.43;;;;;;;-1.32;100.00;101426.47;5043166;28;20136;-82
2023/01/21 08:56:57;;;;;;;26.27;13.55;;;;;;;-1.49;100.00;101376.81;5042369;28;20052;-83
2023/01/21 08:59:27;;;;;;;27.83;12.75;;;;;;;-0.90;100.00;101464.41;5048788;28;20049;-83
2023/01/21 09:01:55;;;;;;;23.38;12.95;;;;;;;-0.87;100.00;101483.56;5035451;28;20115;-81
2023/01/21 09:04:22;;;;;;;26.45;13.50;;;;;;;-1.15;100.00;101417.22;5041215;28;20048;-82
2023/01/21 09:06:48;;;;;;;26.55;12.63;;;;;;;-1.05;100.00;101431.25;5041852;28;20075;-82
2023/01/21 09:09:15;;;;;;;23.80;13.40;;;;;;;-0.70;100.00;101481.22;5035974;28;20419;-83
2023/01/21 09:11:42;;;;;;;23.65;11.57;;;;;;;-1.57;100.00;101325.53;5040579;28;20145;-82
2023/01/21 09:14:08;;;;;;;24.67;12.35;;;;;;;-1.30;100.00;101377.13;5053905;28;20052;-83
2023/01/21 09:16:35;;;;;;;27.33;13.10;;;;;;;-0.90;100.00;101433.22;5048406;28;20631;-82
2023/01/21 09:19:02;;;;;;;27.02;13.23;;;;;;;-0.76;100.00;101461.19;5043041;28;20048;-82
2023/01/21 09:21:29;;;;;;;26.17;13.10;;;;;;;-1.30;100.00;101384.91;5042903;28;20479;-84
2023/01/21 09:23:55;;;;;;;23.92;13.02;;;;;;;-1.25;100.00;101391.03;5041486;28;20053;-83
2023/01/21 09:26:23;;;;;;;24.25;12.65;;;;;;;-1.20;100.00;101398.06;5051294;28;20054;-82
2023/01/21 09:28:53;;;;;;;23.30;12.80;;;;;;;-0.59;100.00;101486.59;5033485;28;20132;-83
2023/01/21 09:31:23;;;;;;;25.75;13.10;;;;;;;-1.84;100.00;101293.06;5046982;28;20490;-82
2023/01/21 09:33:56;;;;;;;23.52;13.15;;;;;;;-1.60;100.00;101341.09;5043907;28;20123;-81
2023/01/21 09:36:25;;;;;;;26.00;13.23;;;;;;;-0.67;100.00;101507.31;5044065;28;20141;-81
2023/01/21 09:38:52;;;;;;;21.70;11.85;;;;;;;-1.20;100.00;101402.41;5039233;28;20670;-82
2023/01/21 09:41:29;;;;;;;25.15;13.25;;;;;;;-1.19;100.00;101415.41;5043296;28;20041;-83
2023/01/21 09:44:13;;;;;;;26.13;11.73;;;;;;;-0.69;100.00;101495.13;5035399;28;20076;-81
2023/01/21 09:46:57;;;;;;;25.83;12.93;;;;;;;-0.95;100.00;101461.75;5039249;28;20057;-82
2023/01/21 09:49:35;;;;;;;25.15;12.00;;;;;;;-0.54;100.00;101519.66;5033414;28;20063;-82
2023/01/21 09:52:13;;;;;;;25.33;13.05;;;;;;;-0.42;100.00;101519.84;5044174;28;20459;-81
2023/01/21 09:54:40;;;;;;;35.63;14.00;;;;;;;-0.33;100.00;101521.72;5035163;28;20057;-80
2023/01/21 09:57:34;;;;;;;25.55;14.05;;;;;;;-0.37;100.00;101522.53;5039229;28;20140;-83
2023/01/21 10:00:16;;;;;;;24.73;13.57;;;;;;;-0.31;100.00;101516.50;5041333;28;20053;-84
2023/01/21 10:02:59;;;;;;;30.05;14.50;;;;;;;-0.33;100.00;101521.72;5037772;28;20512;-82
2023/01/21 10:05:43;;;;;;;28.38;14.65;;;;;;;-0.25;100.00;101514.00;5046855;28;20052;-83
2023/01/21 10:08:22;;;;;;;27.10;13.68;;;;;;;-0.20;100.00;101515.84;5036665;28;20050;-81
2023/01/21 10:11:10;;;;;;;25.83;13.57;;;;;;;-0.14;100.00;101517.63;5035624;28;20060;-81
2023/01/21 10:14:10;;;;;;;26.33;13.57;;;;;;;-0.12;100.00;101519.41;5033044;28;20418;-81
2023/01/21 10:17:16;;;;;;;27.30;14.48;;;;;;;-0.75;100.00;101391.84;5039530;28;20120;-82
2023/01/21 10:19:51;;;;;;;28.75;13.77;;;;;;;-0.06;100.00;101506.50;5039224;28;20056;-83
2023/01/21 10:22:23;;;;;;;28.77;15.20;;;;;;;-1.33;100.00;101297.38;5044074;28;20048;-83
2023/01/21 10:25:25;;;;;;;28.88;14.85;;;;;;;-0.33;100.00;101467.06;5041255;28;20062;-82
2023/01/21 10:27:55;;;;;;;28.00;14.10;;;;;;;-0.48;100.00;101449.50;5044710;28;20056;-81
2023/01/21 10:30:36;;;;;;;27.67;15.07;;;;;;;-0.42;100.00;101448.69;5031886;28;20637;-81
2023/01/21 10:33:05;;;;;;;27.67;15.02;;;;;;;-0.14;100.00;101515.03;5039283;28;20507;-80
2023/01/21 10:35:50;;;;;;;27.38;15.57;;;;;;;-0.12;100.00;101509.00;5033289;28;20126;-81
2023/01/21 10:38:31;;;;;;;27.98;15.30;;;;;;;0.00;100.00;101509.16;5044109;28;20060;-81
2023/01/21 10:41:17;;;;;;;27.67;15.63;;;;;;;0.05;100.00;101513.56;5036134;28;20053;-82
2023/01/21 10:44:06;;;;;;;27.58;15.07;;;;;;;-0.27;100.00;101454.13;5045591;28;20600;-81
2023/01/21 10:46:52;;;;;;;26.58;14.57;;;;;;;-0.08;100.00;101510.81;5047924;28;20121;-81
2023/01/21 10:49:39;;;;;;;31.10;16.67;;;;;;;-0.14;100.00;101513.31;5051980;28;20048;-82
2023/01/21 10:52:33;;;;;;;29.30;16.20;;;;;;;-0.28;100.00;101511.34;5049062;28;20057;-81
2023/01/21 10:55:28;;;;;;;29.33;16.40;;;;;;;-0.34;100.00;101521.69;5039511;28;20050;-83
2023/01/21 10:58:10;;;;;;;30.08;16.67;;;;;;;-0.26;100.00;101520.94;5043301;28;20034;-81
2023/01/21 11:00:46;;;;;;;28.63;16.05;;;;;;;-1.62;100.00;101267.47;5056650;28;20079;-81
2023/01/21 11:03:18;;;;;;;31.27;15.88;;;;;;;-0.97;100.00;101362.06;5049495;28;20053;-81
2023/01/21 11:05:46;;;;;;;32.08;16.20;;;;;;;-0.54;100.00;101438.13;5044709;28;20052;-81
2023/01/21 11:08:21;;;;;;;28.45;16.13;;;;;;;-1.33;100.00;101275.72;5039030;28;20057;-81
2023/01/21 11:10:54;;;;;;;30.02;15.60;;;;;;;0.00;100.00;101526.53;5053988;28;20155;-80
2023/01/21 11:13:22;;;;;;;26.55;15.85;;;;;;;0.02;100.00;101519.59;5041700;28;20049;-80
2023/01/21 11:15:54;;;;;;;29.17;16.27;;;;;;;-0.78;100.00;101410.88;5048336;28;20048;-81
2023/01/21 11:18:28;;;;;;;32.75;16.52;;;;;;;-0.07;100.00;101509.94;5048180;28;20114;-81
2023/01/21 11:20:59;;;;;;;26.70;15.63;;;;;;;-0.92;100.00;101367.31;5044517;28;20104;-79